createdAt,value
2018-05-13T00:00:22.790Z,27.00
2018-05-13T00:02:50.673Z,28.97
2018-05-13T00:05:20.529Z,26.60
2018-05-13T00:07:50.103Z,27.80
2018-05-13T00:10:17.766Z,27.00
2018-05-13T00:12:45.399Z,28.83
2018-05-13T00:15:13.070Z,27.70
2018-05-13T00:17:40.672Z,27.67
2018-05-13T00:20:08.309Z,25.73
2018-05-13T00:22:36.686Z,28.43
2018-05-13T00:25:04.341Z,27.00
2018-05-13T00:27:31.986Z,27.13
2018-05-13T00:30:00.381Z,26.37
2018-05-13T00:32:28.782Z,29.00
2018-05-13T00:34:57.211Z,26.03
2018-05-13T00:37:35.767Z,26.67
2018-05-13T00:40:07.990Z,26.50
2018-05-13T00:42:38.370Z,25.57
2018-05-13T00:45:06.315Z,26.67
2018-05-13T00:47:45.727Z,26.53
2018-05-13T00:50:16.972Z,25.90
2018-05-13T00:52:46.130Z,28.00
2018-05-13T00:55:14.991Z,26.37
2018-05-13T00:57:49.206Z,26.03
2018-05-13T01:00:18.729Z,26.83
2018-05-13T01:02:49.575Z,29.83
2018-05-13T01:05:18.367Z,26.57
2018-05-13T01:07:46.978Z,26.27
2018-05-13T01:10:14.771Z,24.80
2018-05-13T01:12:43.131Z,26.50
2018-05-13T01:15:17.519Z,26.73
2018-05-13T01:17:48.413Z,26.80
2018-05-13T01:20:18.923Z,24.70
2018-05-13T01:22:49.139Z,23.47
2018-05-13T01:25:18.312Z,24.40
2018-05-13T01:30:42.106Z,23.17
2018-05-13T01:33:09.915Z,26.50
2018-05-13T01:35:39.029Z,23.53
2018-05-13T01:38:07.057Z,27.43
2018-05-13T01:40:39.386Z,24.77
2018-05-13T01:45:41.182Z,24.57
2018-05-13T01:48:09.678Z,25.53
2018-05-13T01:50:39.480Z,25.77
2018-05-13T01:53:07.336Z,27.27
2018-05-13T01:55:36.693Z,26.10
2018-05-13T01:58:04.622Z,26.30
2018-05-13T02:00:33.204Z,25.03
2018-05-13T02:03:03.190Z,24.00
2018-05-13T02:05:31.687Z,23.53
2018-05-13T02:08:00.204Z,25.93
2018-05-13T02:10:28.930Z,22.80
2018-05-13T02:12:57.968Z,23.40
2018-05-13T02:15:25.744Z,23.63
2018-05-13T02:17:56.471Z,23.93
2018-05-13T02:20:24.601Z,23.87
2018-05-13T02:22:54.139Z,22.00
2018-05-13T02:25:21.932Z,23.77
2018-05-13T02:27:50.608Z,23.87
2018-05-13T02:30:24.275Z,23.63
2018-05-13T02:32:52.687Z,22.40
2018-05-13T02:35:20.637Z,22.33
2018-05-13T02:37:49.576Z,21.57
2018-05-13T02:40:18.503Z,21.97
2018-05-13T02:42:47.829Z,22.50
2018-05-13T02:45:20.275Z,25.70
2018-05-13T02:47:50.228Z,23.33
2018-05-13T02:50:19.237Z,23.10
2018-05-13T02:52:47.750Z,23.50
2018-05-13T02:55:16.390Z,23.27
2018-05-13T02:57:44.211Z,22.43
2018-05-13T03:00:12.479Z,22.83
2018-05-13T03:02:40.368Z,22.90
2018-05-13T03:05:08.159Z,22.90
2018-05-13T03:07:37.033Z,23.33
2018-05-13T03:10:04.738Z,19.10
2018-05-13T03:12:32.390Z,20.43
2018-05-13T03:15:00.009Z,20.30
2018-05-13T03:17:27.689Z,22.10
2018-05-13T03:19:55.308Z,21.00
2018-05-13T03:22:23.939Z,20.37
2018-05-13T03:24:52.577Z,22.07
2018-05-13T03:27:20.223Z,23.17
2018-05-13T03:29:49.098Z,20.20
2018-05-13T03:32:16.746Z,22.67
2018-05-13T03:34:44.418Z,23.17
2018-05-13T03:37:12.804Z,23.27
2018-05-13T03:39:41.266Z,20.60
2018-05-13T03:42:08.896Z,22.43
2018-05-13T03:44:37.321Z,24.17
2018-05-13T03:47:07.107Z,21.33
2018-05-13T03:49:34.772Z,20.57
2018-05-13T03:52:04.108Z,21.10
2018-05-13T03:54:32.906Z,22.27
2018-05-13T03:57:01.360Z,24.07
2018-05-13T03:59:30.029Z,22.50
2018-05-13T04:01:57.737Z,22.03
2018-05-13T04:04:25.601Z,21.83
2018-05-13T04:06:54.123Z,22.93
2018-05-13T04:09:33.717Z,21.67
2018-05-13T04:15:23.253Z,22.80
2018-05-13T04:17:50.927Z,22.67
2018-05-13T04:20:18.545Z,22.33
2018-05-13T04:22:46.141Z,23.43
2018-05-13T04:25:14.552Z,20.73
2018-05-13T04:27:43.313Z,21.37
2018-05-13T04:30:11.989Z,24.13
2018-05-13T04:32:39.908Z,23.63
2018-05-13T04:35:07.629Z,21.77
2018-05-13T04:37:35.561Z,24.07
2018-05-13T04:40:03.304Z,24.97
2018-05-13T04:42:31.929Z,24.67
2018-05-13T04:44:59.980Z,24.50
2018-05-13T04:47:29.562Z,24.17
2018-05-13T04:50:04.132Z,26.40
2018-05-13T04:52:32.769Z,22.73
2018-05-13T04:55:03.285Z,25.17
2018-05-13T04:57:32.238Z,24.83
2018-05-13T05:02:50.617Z,25.67
2018-05-13T05:05:21.831Z,25.60
2018-05-13T05:07:50.372Z,25.80
2018-05-13T05:10:20.995Z,25.77
2018-05-13T05:12:48.696Z,28.10
2018-05-13T05:15:16.681Z,24.97
2018-05-13T05:17:46.004Z,25.17
2018-05-13T05:20:17.445Z,23.03
2018-05-13T05:22:48.928Z,26.20
2018-05-13T05:25:16.830Z,25.60
2018-05-13T05:27:45.828Z,22.43
2018-05-13T05:30:13.614Z,24.20
2018-05-13T05:32:43.036Z,24.53
2018-05-13T05:35:11.121Z,25.10
2018-05-13T05:37:39.379Z,23.07
2018-05-13T05:40:07.709Z,24.77
2018-05-13T05:42:41.504Z,24.30
2018-05-13T05:45:10.863Z,25.00
2018-05-13T05:47:42.142Z,23.80
2018-05-13T05:50:10.642Z,24.33
2018-05-13T05:52:41.638Z,24.57
2018-05-13T05:55:09.384Z,22.30
2018-05-13T05:57:37.173Z,23.20
2018-05-13T06:00:07.173Z,24.47
2018-05-13T06:02:35.043Z,21.97
2018-05-13T06:05:02.768Z,22.37
2018-05-13T06:07:31.247Z,23.40
2018-05-13T06:10:00.301Z,22.47
2018-05-13T06:12:30.332Z,24.20
2018-05-13T06:14:58.346Z,22.40
2018-05-13T06:17:26.828Z,23.03
2018-05-13T06:19:58.821Z,24.20
2018-05-13T06:22:26.595Z,23.27
2018-05-13T06:24:55.041Z,21.33
2018-05-13T06:27:22.962Z,23.23
2018-05-13T06:29:51.830Z,21.97
2018-05-13T06:32:19.524Z,21.47
2018-05-13T06:34:49.101Z,20.13
2018-05-13T06:37:19.870Z,21.73
2018-05-13T06:39:48.807Z,23.17
2018-05-13T06:42:19.577Z,23.90
2018-05-13T06:44:48.586Z,21.57
2018-05-13T06:47:16.380Z,23.73
2018-05-13T06:49:44.076Z,23.20
2018-05-13T06:52:11.813Z,19.67
2018-05-13T06:54:40.283Z,21.53
2018-05-13T06:57:09.468Z,20.60
2018-05-13T06:59:37.177Z,22.07
2018-05-13T07:02:05.589Z,21.53
2018-05-13T07:04:33.248Z,19.07
2018-05-13T07:07:00.906Z,19.47
2018-05-13T07:09:30.199Z,17.77
2018-05-13T07:11:57.832Z,21.80
2018-05-13T07:14:25.603Z,18.23
2018-05-13T07:16:54.895Z,17.87
2018-05-13T07:19:24.798Z,17.43
2018-05-13T07:21:53.505Z,18.27
2018-05-13T07:24:22.356Z,17.13
2018-05-13T07:29:26.509Z,17.20
2018-05-13T07:31:55.418Z,18.17
2018-05-13T07:34:23.299Z,16.90
2018-05-13T07:36:51.821Z,17.37
2018-05-13T07:39:20.248Z,16.13
2018-05-13T07:41:48.019Z,16.23
2018-05-13T07:44:18.664Z,16.97
2018-05-13T07:46:47.380Z,15.30
2018-05-13T07:49:19.595Z,15.93
2018-05-13T07:51:48.390Z,15.03
2018-05-13T07:54:17.627Z,15.47
2018-05-13T07:56:47.848Z,15.63
2018-05-13T07:59:19.547Z,16.10
2018-05-13T08:01:50.144Z,15.43
2018-05-13T08:04:19.219Z,16.47
2018-05-13T08:06:48.378Z,14.73
2018-05-13T08:09:17.077Z,14.20
2018-05-13T08:11:45.671Z,17.27
2018-05-13T08:14:14.382Z,14.40
2018-05-13T08:16:46.156Z,13.57
2018-05-13T08:19:13.874Z,14.37
2018-05-13T08:21:41.614Z,14.07
2018-05-13T08:24:10.402Z,14.20
2018-05-13T08:26:39.971Z,13.83
2018-05-13T08:29:08.411Z,13.20
2018-05-13T08:31:36.265Z,13.33
2018-05-13T08:34:03.925Z,15.03
2018-05-13T08:36:31.624Z,13.77
2018-05-13T08:39:00.076Z,14.20
2018-05-13T08:41:27.760Z,12.67
2018-05-13T08:43:55.468Z,13.30
2018-05-13T08:46:23.772Z,13.17
2018-05-13T08:48:51.456Z,13.90
2018-05-13T08:51:19.285Z,13.47
2018-05-13T08:53:46.912Z,14.13
2018-05-13T08:56:17.179Z,13.77
2018-05-13T08:58:45.746Z,13.67
2018-05-13T09:01:13.462Z,14.33
2018-05-13T09:03:43.167Z,13.40
2018-05-13T09:06:10.809Z,12.20
2018-05-13T09:08:39.219Z,12.43
2018-05-13T09:11:07.299Z,13.43
2018-05-13T09:13:36.519Z,14.77
2018-05-13T09:16:04.273Z,14.40
2018-05-13T09:18:31.974Z,13.00
2018-05-13T09:20:59.696Z,13.60
2018-05-13T09:23:27.278Z,13.40
2018-05-13T09:25:54.958Z,14.13
2018-05-13T09:28:23.464Z,14.13
2018-05-13T09:30:51.092Z,14.00
2018-05-13T09:33:18.774Z,13.47
2018-05-13T09:35:46.495Z,13.43
2018-05-13T09:38:14.380Z,13.23
2018-05-13T09:40:43.755Z,13.57
2018-05-13T09:43:14.178Z,13.73
2018-05-13T09:45:43.828Z,12.13
2018-05-13T09:48:12.809Z,12.03
2018-05-13T09:50:40.990Z,13.07
2018-05-13T09:53:10.216Z,12.00
2018-05-13T09:55:39.210Z,11.83
2018-05-13T09:58:11.732Z,11.80
2018-05-13T10:00:42.707Z,12.23
2018-05-13T10:03:11.572Z,10.80
2018-05-13T10:05:43.988Z,11.67
2018-05-13T10:08:13.280Z,12.57
2018-05-13T10:13:27.512Z,10.63
2018-05-13T10:15:56.075Z,11.40
2018-05-13T10:18:23.885Z,14.10
2018-05-13T10:20:53.837Z,9.73
2018-05-13T10:23:22.285Z,9.87
2018-05-13T10:25:50.291Z,10.30
2018-05-13T10:28:18.075Z,9.70
2018-05-13T10:30:46.728Z,9.80
2018-05-13T10:33:14.477Z,8.77
2018-05-13T10:35:42.363Z,9.43
2018-05-13T10:38:10.989Z,9.13
2018-05-13T10:40:39.254Z,9.63
2018-05-13T10:43:10.391Z,9.27
2018-05-13T10:45:39.333Z,9.20
2018-05-13T10:48:07.263Z,9.80
2018-05-13T10:50:35.025Z,9.03
2018-05-13T10:53:03.705Z,8.53
2018-05-13T10:55:32.135Z,10.83
2018-05-13T10:57:59.758Z,9.03
2018-05-13T11:00:27.700Z,9.50
2018-05-13T11:02:55.704Z,9.80
2018-05-13T11:05:24.379Z,11.00
2018-05-13T11:07:53.262Z,9.47
2018-05-13T11:10:20.944Z,9.80
2018-05-13T11:12:49.306Z,10.17
2018-05-13T11:15:17.067Z,9.47
2018-05-13T11:17:45.471Z,9.80
2018-05-13T11:20:14.869Z,9.80
2018-05-13T11:22:43.406Z,10.00
2018-05-13T11:25:11.160Z,9.90
2018-05-13T11:27:40.186Z,9.70
2018-05-13T11:30:07.871Z,9.53
2018-05-13T11:32:36.415Z,9.33
2018-05-13T11:35:04.220Z,10.23
2018-05-13T11:37:33.155Z,9.20
2018-05-13T11:40:01.211Z,10.20
2018-05-13T11:42:29.020Z,9.43
2018-05-13T11:44:56.919Z,9.47
2018-05-13T11:47:25.393Z,9.23
2018-05-13T11:49:53.011Z,9.00
2018-05-13T11:52:22.804Z,9.00
2018-05-13T11:54:50.390Z,9.67
2018-05-13T11:57:19.255Z,9.73
2018-05-13T11:59:47.699Z,9.03
2018-05-13T12:02:17.583Z,8.73
2018-05-13T12:04:46.848Z,9.30
2018-05-13T12:07:14.797Z,7.87
2018-05-13T12:09:43.350Z,8.07
2018-05-13T12:12:11.095Z,8.97
2018-05-13T12:14:39.604Z,8.20
2018-05-13T12:17:08.831Z,8.40
2018-05-13T12:19:41.243Z,9.57
2018-05-13T12:22:10.954Z,7.47
2018-05-13T12:24:39.338Z,9.70
2018-05-13T12:27:08.157Z,8.07
2018-05-13T12:29:35.936Z,9.37
2018-05-13T12:32:04.610Z,9.87
2018-05-13T12:34:33.330Z,9.30
2018-05-13T12:37:04.450Z,10.27
2018-05-13T12:39:34.486Z,9.30
2018-05-13T12:42:02.936Z,9.43
2018-05-13T12:44:34.155Z,9.13
2018-05-13T12:47:03.413Z,9.73
2018-05-13T12:49:31.262Z,9.87
2018-05-13T12:52:02.830Z,9.60
2018-05-13T12:54:30.735Z,10.57
2018-05-13T12:57:02.915Z,10.17
2018-05-13T12:59:31.427Z,11.03
2018-05-13T13:01:59.032Z,9.53
2018-05-13T13:04:26.724Z,9.93
2018-05-13T13:06:56.510Z,10.23
2018-05-13T13:09:24.552Z,17.20
2018-05-13T13:11:52.271Z,16.97
2018-05-13T13:14:19.911Z,10.73
2018-05-13T13:16:47.552Z,11.33
2018-05-13T13:19:16.159Z,8.97
2018-05-13T13:21:44.663Z,10.70
2018-05-13T13:24:12.663Z,9.40
2018-05-13T13:26:41.876Z,9.93
2018-05-13T13:29:09.747Z,8.63
2018-05-13T13:31:38.311Z,9.30
2018-05-13T13:34:06.012Z,9.23
2018-05-13T13:36:34.695Z,8.77
2018-05-13T13:39:02.351Z,9.07
2018-05-13T13:41:30.100Z,8.37
2018-05-13T13:43:58.513Z,7.50
2018-05-13T13:46:26.189Z,7.00
2018-05-13T13:48:54.346Z,6.97
2018-05-13T13:51:22.238Z,6.73
2018-05-13T13:53:49.963Z,6.80
2018-05-13T13:56:17.614Z,6.30
2018-05-13T13:58:45.341Z,6.60
2018-05-13T14:01:13.866Z,8.73
2018-05-13T14:03:41.554Z,7.60
2018-05-13T14:06:09.203Z,6.50
2018-05-13T14:08:36.800Z,6.93
2018-05-13T14:11:04.507Z,6.40
2018-05-13T14:13:32.143Z,6.60
2018-05-13T14:16:00.590Z,6.63
2018-05-13T14:18:28.308Z,7.23
2018-05-13T14:20:55.946Z,7.30
2018-05-13T14:23:23.730Z,6.37
2018-05-13T14:25:52.121Z,6.93
2018-05-13T14:28:21.004Z,7.17
2018-05-13T14:30:48.849Z,7.03
2018-05-13T14:33:16.555Z,7.27
2018-05-13T14:35:44.358Z,6.83
2018-05-13T14:38:12.037Z,6.50
2018-05-13T14:40:40.786Z,6.17
2018-05-13T14:43:09.200Z,5.90
2018-05-13T14:45:37.728Z,6.03
2018-05-13T14:48:06.364Z,5.57
2018-05-13T14:50:34.044Z,5.73
2018-05-13T14:53:01.658Z,5.87
2018-05-13T14:55:29.321Z,6.13
2018-05-13T14:57:57.028Z,6.10
2018-05-13T15:00:24.847Z,5.80
2018-05-13T15:02:53.259Z,6.00
2018-05-13T15:05:21.060Z,6.20
2018-05-13T15:07:49.942Z,7.30
2018-05-13T15:10:18.868Z,7.03
2018-05-13T15:12:46.515Z,7.03
2018-05-13T15:15:14.284Z,7.27
2018-05-13T15:17:43.218Z,7.67
2018-05-13T15:20:10.921Z,7.40
2018-05-13T15:22:41.990Z,7.77
2018-05-13T15:25:10.346Z,8.13
2018-05-13T15:27:38.106Z,7.70
2018-05-13T15:30:06.928Z,8.17
2018-05-13T15:32:37.625Z,7.93
2018-05-13T15:35:06.267Z,8.37
2018-05-13T15:37:35.385Z,9.07
2018-05-13T15:40:03.325Z,9.37
2018-05-13T15:42:43.013Z,11.77
2018-05-13T15:45:10.783Z,13.57
2018-05-13T15:47:42.797Z,16.20
2018-05-13T15:50:11.820Z,18.73
2018-05-13T15:52:41.238Z,19.17
2018-05-13T15:55:10.792Z,20.87
2018-05-13T15:57:42.515Z,21.57
2018-05-13T16:00:11.452Z,20.50
2018-05-13T16:02:43.479Z,22.23
2018-05-13T16:05:14.226Z,22.73
2018-05-13T16:10:17.640Z,28.03
2018-05-13T16:12:47.273Z,29.37
2018-05-13T16:15:16.656Z,28.50
2018-05-13T16:17:44.481Z,28.57
2018-05-13T16:20:12.182Z,25.83
2018-05-13T16:22:40.651Z,25.67
2018-05-13T16:25:08.392Z,25.37
2018-05-13T16:27:36.239Z,26.27
2018-05-13T16:30:05.131Z,28.27
2018-05-13T16:32:33.982Z,29.60
2018-05-13T16:35:03.330Z,32.13
2018-05-13T16:37:31.007Z,29.70
2018-05-13T16:40:00.423Z,32.00
2018-05-13T16:42:28.213Z,37.43
2018-05-13T16:44:55.918Z,41.40
2018-05-13T16:47:23.602Z,39.93
2018-05-13T16:49:52.094Z,36.87
2018-05-13T16:52:20.503Z,41.30
2018-05-13T16:54:48.149Z,40.87
2018-05-13T16:57:16.539Z,47.47
2018-05-13T16:59:44.315Z,40.90
2018-05-13T17:02:11.939Z,40.13
2018-05-13T17:04:41.351Z,35.47
2018-05-13T17:07:09.134Z,35.10
2018-05-13T17:09:36.797Z,35.17
2018-05-13T17:12:05.184Z,31.17
2018-05-13T17:14:32.941Z,33.80
2018-05-13T17:17:00.609Z,30.57
2018-05-13T17:19:28.356Z,28.20
2018-05-13T17:21:56.785Z,24.67
2018-05-13T17:24:24.598Z,24.03
2018-05-13T17:26:53.103Z,26.27
2018-05-13T17:29:21.596Z,23.50
2018-05-13T17:31:50.630Z,22.07
2018-05-13T17:34:20.589Z,19.97
2018-05-13T17:36:51.224Z,16.20
2018-05-13T17:39:19.142Z,21.67
2018-05-13T17:41:47.419Z,20.30
2018-05-13T17:44:15.819Z,18.73
2018-05-13T17:46:43.721Z,17.00
2018-05-13T17:49:12.703Z,15.33
2018-05-13T17:51:40.433Z,15.87
2018-05-13T17:54:08.257Z,14.97
2018-05-13T17:56:35.957Z,14.30
2018-05-13T17:59:04.458Z,14.80
2018-05-13T18:01:33.079Z,12.77
2018-05-13T18:04:02.165Z,11.13
2018-05-13T18:06:31.401Z,13.10
2018-05-13T18:08:59.830Z,11.13
2018-05-13T18:11:29.092Z,11.00
2018-05-13T18:13:58.531Z,10.20
2018-05-13T18:16:26.389Z,10.17
2018-05-13T18:18:55.086Z,9.30
2018-05-13T18:21:26.165Z,9.77
2018-05-13T18:23:54.479Z,9.13
2018-05-13T18:26:22.193Z,9.00
2018-05-13T18:28:50.909Z,9.13
2018-05-13T18:31:18.638Z,8.63
2018-05-13T18:33:47.178Z,9.60
2018-05-13T18:36:17.792Z,9.67
2018-05-13T18:38:47.342Z,9.27
2018-05-13T18:41:16.172Z,11.23
2018-05-13T18:43:43.958Z,9.70
2018-05-13T18:46:12.672Z,10.77
2018-05-13T18:48:40.455Z,10.37
2018-05-13T18:51:08.285Z,9.67
2018-05-13T18:53:37.122Z,10.30
2018-05-13T18:56:06.627Z,9.80
2018-05-13T18:58:38.454Z,10.97
2018-05-13T19:01:06.963Z,12.47
2018-05-13T19:03:35.934Z,11.57
2018-05-13T19:06:04.543Z,11.67
2018-05-13T19:08:33.021Z,12.57
2018-05-13T19:11:05.729Z,12.73
2018-05-13T19:13:34.004Z,13.40
2018-05-13T19:16:03.829Z,13.67
2018-05-13T19:18:36.307Z,15.73
2018-05-13T19:21:05.363Z,16.30
2018-05-13T19:23:47.414Z,14.97
2018-05-13T19:26:37.449Z,14.17
2018-05-13T19:29:05.342Z,15.67
2018-05-13T19:31:49.991Z,15.87
2018-05-13T19:34:48.319Z,15.90
2018-05-13T19:37:23.323Z,17.50
2018-05-13T19:39:51.841Z,17.17
2018-05-13T19:44:57.603Z,18.37
2018-05-13T19:47:30.209Z,21.83
2018-05-13T19:50:01.471Z,20.17
2018-05-13T19:52:36.543Z,22.93
2018-05-13T19:58:14.127Z,23.03
2018-05-13T20:05:46.542Z,26.87
2018-05-13T20:08:20.009Z,27.33
2018-05-13T20:10:47.669Z,29.50
2018-05-13T20:13:15.289Z,31.33
2018-05-13T20:15:42.968Z,29.93
2018-05-13T20:18:10.607Z,30.00
2018-05-13T20:20:39.142Z,31.23
2018-05-13T20:23:19.326Z,32.03
2018-05-13T20:25:46.957Z,31.87
2018-05-13T20:28:14.646Z,33.73
2018-05-13T20:30:42.796Z,34.03
2018-05-13T20:33:10.628Z,33.77
2018-05-13T20:35:39.393Z,34.03
2018-05-13T20:38:09.675Z,32.60
2018-05-13T20:40:39.130Z,36.27
2018-05-13T20:43:11.105Z,41.13
2018-05-13T20:45:40.460Z,40.20
2018-05-13T20:50:42.113Z,41.33
2018-05-13T20:53:10.857Z,41.70
2018-05-13T20:55:40.669Z,40.10
2018-05-13T20:58:09.475Z,44.07
2018-05-13T21:00:37.328Z,47.17
2018-05-13T21:03:05.991Z,47.53
2018-05-13T21:08:09.320Z,46.90
2018-05-13T21:10:40.874Z,47.70
2018-05-13T21:13:08.638Z,49.73
2018-05-13T21:15:39.403Z,47.80
2018-05-13T21:18:10.731Z,47.87
2018-05-13T21:20:40.956Z,49.63
2018-05-13T21:23:09.675Z,50.93
2018-05-13T21:25:38.585Z,50.73
2018-05-13T21:28:09.150Z,53.97
2018-05-13T21:30:38.517Z,53.67
2018-05-13T21:33:06.880Z,55.20
2018-05-13T21:35:37.101Z,54.27
2018-05-13T21:38:08.288Z,53.47
2018-05-13T21:40:42.335Z,54.77
2018-05-13T21:43:12.772Z,54.23
2018-05-13T21:45:41.547Z,56.17
2018-05-13T21:48:09.612Z,50.70
2018-05-13T21:50:43.321Z,49.93
2018-05-13T21:53:15.877Z,49.33
2018-05-13T21:55:45.634Z,51.17
2018-05-13T21:58:14.249Z,52.27
2018-05-13T22:00:42.030Z,55.40
2018-05-13T22:03:10.745Z,54.03
2018-05-13T22:05:40.145Z,53.77
2018-05-13T22:08:10.377Z,48.93
2018-05-13T22:10:38.743Z,51.67
2018-05-13T22:13:07.256Z,48.13
2018-05-13T22:16:04.429Z,49.87
2018-05-13T22:18:32.152Z,56.17
2018-05-13T22:21:02.497Z,59.13
2018-05-13T22:23:30.240Z,59.30
2018-05-13T22:25:58.006Z,55.60
2018-05-13T22:28:29.969Z,55.03
2018-05-13T22:30:57.831Z,58.53
2018-05-13T22:33:28.470Z,56.20
2018-05-13T22:35:56.754Z,65.97
2018-05-13T22:38:25.363Z,58.50
2018-05-13T22:40:53.518Z,57.20
2018-05-13T22:43:24.866Z,58.50
2018-05-13T22:45:53.624Z,53.03
2018-05-13T22:48:21.805Z,60.57
2018-05-13T22:50:49.642Z,58.53
2018-05-13T22:53:17.769Z,57.60
2018-05-13T22:55:46.443Z,56.20
2018-05-13T22:58:14.406Z,62.73
2018-05-13T23:00:42.365Z,55.80
2018-05-13T23:03:11.514Z,54.07
2018-05-13T23:05:39.842Z,60.47
2018-05-13T23:08:07.751Z,65.53
2018-05-13T23:10:35.449Z,59.20
2018-05-13T23:13:03.465Z,63.07
2018-05-13T23:15:32.004Z,65.33
2018-05-13T23:17:59.810Z,63.07
2018-05-13T23:20:29.731Z,61.50
2018-05-13T23:23:00.080Z,61.60
2018-05-13T23:25:29.503Z,63.60
2018-05-13T23:27:57.271Z,56.30
2018-05-13T23:30:26.325Z,61.10
2018-05-13T23:32:54.960Z,60.60
2018-05-13T23:35:24.245Z,60.43
2018-05-13T23:37:52.771Z,67.50
2018-05-13T23:40:21.619Z,61.13
2018-05-13T23:42:49.521Z,68.20
2018-05-13T23:45:24.668Z,67.23
2018-05-13T23:47:52.519Z,66.97
2018-05-13T23:50:20.418Z,65.10
2018-05-13T23:52:48.384Z,72.10
2018-05-13T23:55:16.227Z,68.30
2018-05-13T23:57:44.291Z,72.83
